sensor_id;sensor_type;location;lat;lon;timestamp;P1;durP1;ratioP1;P2;durP2;ratioP2
22549;SDS011;11441;57.164;-2.120;2023-07-28T00:00:11;4.70;;;4.25;;
22549;SDS011;11441;57.164;-2.120;2023-07-28T00:02:40;4.10;;;3.80;;
22549;SDS011;11441;57.164;-2.120;2023-07-28T00:05:07;5.30;;;4.80;;
22549;SDS011;11441;57.164;-2.120;2023-07-28T00:07:34;5.97;;;5.47;;
22549;SDS011;11441;57.164;-2.120;2023-07-28T00:10:02;6.05;;;5.50;;
22549;SDS011;11441;57.164;-2.120;2023-07-28T00:12:29;6.03;;;5.53;;
22549;SDS011;11441;57.164;-2.120;2023-07-28T00:17:42;5.28;;;4.78;;
22549;SDS011;11441;57.164;-2.120;2023-07-28T00:20:09;4.93;;;4.47;;
22549;SDS011;11441;57.164;-2.120;2023-07-28T00:22:37;5.30;;;4.85;;
22549;SDS011;11441;57.164;-2.120;2023-07-28T00:25:04;5.05;;;4.65;;
22549;SDS011;11441;57.164;-2.120;2023-07-28T00:27:31;5.93;;;5.40;;
22549;SDS011;11441;57.164;-2.120;2023-07-28T00:29:58;6.30;;;5.70;;
22549;SDS011;11441;57.164;-2.120;2023-07-28T00:32:25;7.18;;;6.10;;
22549;SDS011;11441;57.164;-2.120;2023-07-28T00:34:51;7.35;;;6.53;;
22549;SDS011;11441;57.164;-2.120;2023-07-28T00:40:05;7.15;;;6.45;;
22549;SDS011;11441;57.164;-2.120;2023-07-28T00:42:33;5.68;;;5.15;;
22549;SDS011;11441;57.164;-2.120;2023-07-28T00:45:02;5.80;;;5.20;;
22549;SDS011;11441;57.164;-2.120;2023-07-28T00:47:29;7.07;;;5.45;;
22549;SDS011;11441;57.164;-2.120;2023-07-28T00:49:57;6.00;;;5.40;;
22549;SDS011;11441;57.164;-2.120;2023-07-28T00:52:24;6.20;;;5.60;;
22549;SDS011;11441;57.164;-2.120;2023-07-28T00:54:51;7.43;;;5.38;;
22549;SDS011;11441;57.164;-2.120;2023-07-28T00:57:18;8.52;;;6.03;;
22549;SDS011;11441;57.164;-2.120;2023-07-28T00:59:45;5.95;;;5.18;;
22549;SDS011;11441;57.164;-2.120;2023-07-28T01:02:16;7.20;;;5.97;;
22549;SDS011;11441;57.164;-2.120;2023-07-28T01:04:44;9.07;;;6.75;;
22549;SDS011;11441;57.164;-2.120;2023-07-28T01:07:22;7.15;;;5.93;;
22549;SDS011;11441;57.164;-2.120;2023-07-28T01:12:45;7.53;;;5.95;;
22549;SDS011;11441;57.164;-2.120;2023-07-28T01:15:12;7.85;;;5.57;;
22549;SDS011;11441;57.164;-2.120;2023-07-28T01:17:41;8.93;;;6.20;;
22549;SDS011;11441;57.164;-2.120;2023-07-28T01:20:10;8.82;;;6.10;;
22549;SDS011;11441;57.164;-2.120;2023-07-28T01:28:20;7.55;;;5.75;;
22549;SDS011;11441;57.164;-2.120;2023-07-28T01:30:47;10.95;;;6.78;;
22549;SDS011;11441;57.164;-2.120;2023-07-28T01:33:14;9.93;;;6.45;;
22549;SDS011;11441;57.164;-2.120;2023-07-28T01:35:41;8.10;;;5.95;;
22549;SDS011;11441;57.164;-2.120;2023-07-28T01:38:08;9.38;;;6.47;;
22549;SDS011;11441;57.164;-2.120;2023-07-28T01:40:35;6.80;;;5.20;;
22549;SDS011;11441;57.164;-2.120;2023-07-28T01:43:02;7.47;;;5.60;;
22549;SDS011;11441;57.164;-2.120;2023-07-28T01:45:29;5.75;;;4.95;;
22549;SDS011;11441;57.164;-2.120;2023-07-28T01:47:56;7.38;;;5.80;;
22549;SDS011;11441;57.164;-2.120;2023-07-28T01:50:23;6.30;;;5.40;;
22549;SDS011;11441;57.164;-2.120;2023-07-28T01:52:50;6.15;;;5.10;;
22549;SDS011;11441;57.164;-2.120;2023-07-28T01:55:16;5.80;;;4.90;;
22549;SDS011;11441;57.164;-2.120;2023-07-28T01:57:50;7.15;;;5.45;;
22549;SDS011;11441;57.164;-2.120;2023-07-28T02:00:27;6.18;;;5.18;;
22549;SDS011;11441;57.164;-2.120;2023-07-28T02:02:54;6.15;;;5.30;;
22549;SDS011;11441;57.164;-2.120;2023-07-28T02:05:22;6.30;;;5.15;;
22549;SDS011;11441;57.164;-2.120;2023-07-28T02:08:07;5.35;;;4.72;;
22549;SDS011;11441;57.164;-2.120;2023-07-28T02:10:34;8.02;;;5.07;;
22549;SDS011;11441;57.164;-2.120;2023-07-28T02:13:00;5.90;;;5.07;;
22549;SDS011;11441;57.164;-2.120;2023-07-28T02:15:27;7.65;;;5.43;;
22549;SDS011;11441;57.164;-2.120;2023-07-28T02:17:54;8.55;;;5.63;;
22549;SDS011;11441;57.164;-2.120;2023-07-28T02:20:21;5.15;;;4.38;;
22549;SDS011;11441;57.164;-2.120;2023-07-28T02:22:48;6.00;;;4.68;;
22549;SDS011;11441;57.164;-2.120;2023-07-28T02:25:15;6.80;;;5.22;;
22549;SDS011;11441;57.164;-2.120;2023-07-28T02:27:41;11.73;;;6.22;;
22549;SDS011;11441;57.164;-2.120;2023-07-28T02:32:54;9.98;;;7.60;;
22549;SDS011;11441;57.164;-2.120;2023-07-28T02:35:21;10.57;;;8.05;;
22549;SDS011;11441;57.164;-2.120;2023-07-28T02:37:48;9.80;;;6.82;;
22549;SDS011;11441;57.164;-2.120;2023-07-28T02:40:15;10.52;;;7.18;;
22549;SDS011;11441;57.164;-2.120;2023-07-28T02:42:42;8.80;;;6.03;;
22549;SDS011;11441;57.164;-2.120;2023-07-28T02:45:27;9.77;;;6.78;;
22549;SDS011;11441;57.164;-2.120;2023-07-28T02:47:54;9.35;;;7.70;;
22549;SDS011;11441;57.164;-2.120;2023-07-28T02:50:22;11.15;;;6.80;;
22549;SDS011;11441;57.164;-2.120;2023-07-28T02:52:49;12.98;;;6.82;;
22549;SDS011;11441;57.164;-2.120;2023-07-28T02:55:16;10.13;;;6.63;;
22549;SDS011;11441;57.164;-2.120;2023-07-28T02:57:43;6.78;;;5.85;;
22549;SDS011;11441;57.164;-2.120;2023-07-28T03:00:27;7.78;;;6.25;;
22549;SDS011;11441;57.164;-2.120;2023-07-28T03:02:54;7.20;;;6.45;;
22549;SDS011;11441;57.164;-2.120;2023-07-28T03:05:21;7.70;;;6.82;;
22549;SDS011;11441;57.164;-2.120;2023-07-28T03:08:04;7.60;;;6.88;;
22549;SDS011;11441;57.164;-2.120;2023-07-28T03:10:31;8.23;;;6.45;;
22549;SDS011;11441;57.164;-2.120;2023-07-28T03:12:59;6.78;;;6.07;;
22549;SDS011;11441;57.164;-2.120;2023-07-28T03:15:26;8.38;;;7.22;;
22549;SDS011;11441;57.164;-2.120;2023-07-28T03:17:53;5.75;;;5.10;;
22549;SDS011;11441;57.164;-2.120;2023-07-28T03:20:21;7.75;;;6.50;;
22549;SDS011;11441;57.164;-2.120;2023-07-28T03:22:48;7.35;;;5.50;;
22549;SDS011;11441;57.164;-2.120;2023-07-28T03:25:15;8.35;;;6.97;;
22549;SDS011;11441;57.164;-2.120;2023-07-28T03:27:42;9.00;;;6.72;;
22549;SDS011;11441;57.164;-2.120;2023-07-28T03:30:27;7.60;;;6.85;;
22549;SDS011;11441;57.164;-2.120;2023-07-28T03:32:54;6.68;;;5.97;;
22549;SDS011;11441;57.164;-2.120;2023-07-28T03:35:21;7.57;;;6.18;;
22549;SDS011;11441;57.164;-2.120;2023-07-28T03:37:58;8.63;;;5.55;;
22549;SDS011;11441;57.164;-2.120;2023-07-28T03:40:25;8.18;;;6.03;;
22549;SDS011;11441;57.164;-2.120;2023-07-28T03:42:54;6.30;;;5.60;;
22549;SDS011;11441;57.164;-2.120;2023-07-28T03:45:21;7.53;;;6.45;;
22549;SDS011;11441;57.164;-2.120;2023-07-28T03:47:48;11.50;;;5.68;;
22549;SDS011;11441;57.164;-2.120;2023-07-28T03:50:15;6.82;;;6.10;;
22549;SDS011;11441;57.164;-2.120;2023-07-28T03:52:44;6.90;;;6.20;;
22549;SDS011;11441;57.164;-2.120;2023-07-28T03:55:11;8.63;;;6.55;;
22549;SDS011;11441;57.164;-2.120;2023-07-28T03:57:38;9.18;;;7.28;;
22549;SDS011;11441;57.164;-2.120;2023-07-28T04:00:06;13.60;;;6.93;;
22549;SDS011;11441;57.164;-2.120;2023-07-28T04:02:39;7.57;;;6.78;;
22549;SDS011;11441;57.164;-2.120;2023-07-28T04:05:06;9.60;;;7.25;;
22549;SDS011;11441;57.164;-2.120;2023-07-28T04:07:33;9.63;;;6.40;;
22549;SDS011;11441;57.164;-2.120;2023-07-28T04:10:00;8.30;;;7.28;;
22549;SDS011;11441;57.164;-2.120;2023-07-28T04:12:27;7.03;;;6.30;;
22549;SDS011;11441;57.164;-2.120;2023-07-28T04:14:55;10.23;;;6.38;;
22549;SDS011;11441;57.164;-2.120;2023-07-28T04:17:23;8.25;;;6.45;;
22549;SDS011;11441;57.164;-2.120;2023-07-28T04:19:50;8.10;;;6.63;;
22549;SDS011;11441;57.164;-2.120;2023-07-28T04:22:17;6.70;;;6.10;;
22549;SDS011;11441;57.164;-2.120;2023-07-28T04:24:50;8.80;;;6.50;;
22549;SDS011;11441;57.164;-2.120;2023-07-28T04:27:17;12.90;;;6.95;;
22549;SDS011;11441;57.164;-2.120;2023-07-28T04:29:44;6.50;;;5.78;;
22549;SDS011;11441;57.164;-2.120;2023-07-28T04:32:15;6.88;;;6.22;;
22549;SDS011;11441;57.164;-2.120;2023-07-28T04:34:42;9.20;;;7.18;;
22549;SDS011;11441;57.164;-2.120;2023-07-28T04:37:14;7.82;;;7.03;;
22549;SDS011;11441;57.164;-2.120;2023-07-28T04:39:55;7.97;;;6.88;;
22549;SDS011;11441;57.164;-2.120;2023-07-28T04:42:22;8.40;;;7.13;;
22549;SDS011;11441;57.164;-2.120;2023-07-28T04:45:08;10.27;;;6.72;;
22549;SDS011;11441;57.164;-2.120;2023-07-28T04:47:35;8.25;;;6.93;;
22549;SDS011;11441;57.164;-2.120;2023-07-28T04:50:03;8.00;;;7.22;;
22549;SDS011;11441;57.164;-2.120;2023-07-28T04:53:08;9.80;;;8.10;;
22549;SDS011;11441;57.164;-2.120;2023-07-28T04:55:54;8.13;;;6.82;;
22549;SDS011;11441;57.164;-2.120;2023-07-28T04:58:21;8.25;;;7.22;;
22549;SDS011;11441;57.164;-2.120;2023-07-28T05:00:50;8.77;;;6.78;;
22549;SDS011;11441;57.164;-2.120;2023-07-28T05:03:17;8.60;;;7.05;;
22549;SDS011;11441;57.164;-2.120;2023-07-28T05:06:03;8.25;;;6.57;;
22549;SDS011;11441;57.164;-2.120;2023-07-28T05:08:31;7.45;;;6.70;;
22549;SDS011;11441;57.164;-2.120;2023-07-28T05:10:59;7.82;;;7.03;;
22549;SDS011;11441;57.164;-2.120;2023-07-28T05:13:29;7.70;;;6.50;;
22549;SDS011;11441;57.164;-2.120;2023-07-28T05:15:56;6.60;;;5.97;;
22549;SDS011;11441;57.164;-2.120;2023-07-28T05:18:46;6.20;;;5.65;;
22549;SDS011;11441;57.164;-2.120;2023-07-28T05:21:35;7.65;;;6.00;;
22549;SDS011;11441;57.164;-2.120;2023-07-28T05:24:02;6.75;;;5.82;;
22549;SDS011;11441;57.164;-2.120;2023-07-28T05:26:32;5.95;;;5.45;;
22549;SDS011;11441;57.164;-2.120;2023-07-28T05:28:59;6.82;;;5.25;;
22549;SDS011;11441;57.164;-2.120;2023-07-28T05:31:26;10.10;;;6.63;;
22549;SDS011;11441;57.164;-2.120;2023-07-28T05:33:53;5.90;;;5.40;;
22549;SDS011;11441;57.164;-2.120;2023-07-28T05:36:20;6.30;;;5.70;;
22549;SDS011;11441;57.164;-2.120;2023-07-28T05:38:48;10.48;;;6.05;;
22549;SDS011;11441;57.164;-2.120;2023-07-28T05:41:16;7.18;;;6.28;;
22549;SDS011;11441;57.164;-2.120;2023-07-28T05:43:44;7.53;;;5.65;;
22549;SDS011;11441;57.164;-2.120;2023-07-28T05:46:13;8.73;;;6.35;;
22549;SDS011;11441;57.164;-2.120;2023-07-28T05:48:58;7.00;;;6.30;;
22549;SDS011;11441;57.164;-2.120;2023-07-28T05:51:24;11.15;;;6.90;;
22549;SDS011;11441;57.164;-2.120;2023-07-28T05:53:53;8.73;;;6.90;;
22549;SDS011;11441;57.164;-2.120;2023-07-28T05:56:21;9.43;;;6.68;;
22549;SDS011;11441;57.164;-2.120;2023-07-28T05:58:48;8.25;;;6.70;;
22549;SDS011;11441;57.164;-2.120;2023-07-28T06:01:15;7.55;;;5.78;;
22549;SDS011;11441;57.164;-2.120;2023-07-28T06:04:09;7.43;;;6.22;;
22549;SDS011;11441;57.164;-2.120;2023-07-28T06:06:42;7.78;;;6.43;;
22549;SDS011;11441;57.164;-2.120;2023-07-28T06:09:11;9.27;;;6.45;;
22549;SDS011;11441;57.164;-2.120;2023-07-28T06:11:39;7.97;;;6.45;;
22549;SDS011;11441;57.164;-2.120;2023-07-28T06:14:06;8.55;;;6.50;;
22549;SDS011;11441;57.164;-2.120;2023-07-28T06:16:34;7.25;;;6.55;;
22549;SDS011;11441;57.164;-2.120;2023-07-28T06:19:01;6.78;;;6.10;;
22549;SDS011;11441;57.164;-2.120;2023-07-28T06:21:28;7.78;;;6.88;;
22549;SDS011;11441;57.164;-2.120;2023-07-28T06:23:55;10.23;;;7.38;;
22549;SDS011;11441;57.164;-2.120;2023-07-28T06:26:22;8.85;;;6.75;;
22549;SDS011;11441;57.164;-2.120;2023-07-28T06:28:49;9.25;;;7.25;;
22549;SDS011;11441;57.164;-2.120;2023-07-28T06:31:17;9.50;;;7.82;;
22549;SDS011;11441;57.164;-2.120;2023-07-28T06:33:44;9.18;;;6.93;;
22549;SDS011;11441;57.164;-2.120;2023-07-28T06:36:13;10.10;;;7.63;;
22549;SDS011;11441;57.164;-2.120;2023-07-28T06:38:40;8.70;;;7.20;;
22549;SDS011;11441;57.164;-2.120;2023-07-28T06:41:06;8.25;;;7.20;;
22549;SDS011;11441;57.164;-2.120;2023-07-28T06:43:33;7.57;;;6.80;;
22549;SDS011;11441;57.164;-2.120;2023-07-28T06:46:00;8.05;;;7.25;;
22549;SDS011;11441;57.164;-2.120;2023-07-28T06:48:27;6.55;;;5.95;;
22549;SDS011;11441;57.164;-2.120;2023-07-28T06:50:55;6.72;;;5.85;;
22549;SDS011;11441;57.164;-2.120;2023-07-28T06:53:22;7.68;;;6.82;;
22549;SDS011;11441;57.164;-2.120;2023-07-28T06:55:48;9.23;;;7.78;;
22549;SDS011;11441;57.164;-2.120;2023-07-28T06:58:15;12.27;;;7.18;;
22549;SDS011;11441;57.164;-2.120;2023-07-28T07:00:43;8.38;;;6.57;;
22549;SDS011;11441;57.164;-2.120;2023-07-28T07:03:09;7.60;;;6.80;;
22549;SDS011;11441;57.164;-2.120;2023-07-28T07:05:37;8.77;;;7.80;;
22549;SDS011;11441;57.164;-2.120;2023-07-28T07:08:04;7.93;;;7.13;;
22549;SDS011;11441;57.164;-2.120;2023-07-28T07:10:31;9.07;;;7.88;;
22549;SDS011;11441;57.164;-2.120;2023-07-28T07:12:58;10.68;;;7.60;;
22549;SDS011;11441;57.164;-2.120;2023-07-28T07:15:25;8.70;;;7.00;;
22549;SDS011;11441;57.164;-2.120;2023-07-28T07:17:52;7.53;;;6.70;;
22549;SDS011;11441;57.164;-2.120;2023-07-28T07:20:19;7.30;;;6.22;;
22549;SDS011;11441;57.164;-2.120;2023-07-28T07:22:46;8.18;;;6.55;;
22549;SDS011;11441;57.164;-2.120;2023-07-28T07:25:13;6.43;;;5.82;;
22549;SDS011;11441;57.164;-2.120;2023-07-28T07:27:41;6.72;;;6.13;;
22549;SDS011;11441;57.164;-2.120;2023-07-28T07:30:08;5.70;;;5.18;;
22549;SDS011;11441;57.164;-2.120;2023-07-28T07:32:35;7.47;;;5.68;;
22549;SDS011;11441;57.164;-2.120;2023-07-28T07:35:02;5.63;;;5.13;;
22549;SDS011;11441;57.164;-2.120;2023-07-28T07:37:29;5.22;;;4.72;;
22549;SDS011;11441;57.164;-2.120;2023-07-28T07:39:58;6.45;;;5.85;;
22549;SDS011;11441;57.164;-2.120;2023-07-28T07:42:27;6.00;;;5.40;;
22549;SDS011;11441;57.164;-2.120;2023-07-28T07:44:55;5.13;;;4.72;;
22549;SDS011;11441;57.164;-2.120;2023-07-28T07:47:22;5.13;;;4.72;;
22549;SDS011;11441;57.164;-2.120;2023-07-28T07:50:08;4.50;;;4.10;;
22549;SDS011;11441;57.164;-2.120;2023-07-28T07:52:36;4.55;;;4.25;;
22549;SDS011;11441;57.164;-2.120;2023-07-28T07:55:10;4.65;;;4.25;;
22549;SDS011;11441;57.164;-2.120;2023-07-28T07:57:40;4.50;;;4.05;;
22549;SDS011;11441;57.164;-2.120;2023-07-28T08:00:08;4.47;;;4.03;;
22549;SDS011;11441;57.164;-2.120;2023-07-28T08:02:38;3.85;;;3.55;;
22549;SDS011;11441;57.164;-2.120;2023-07-28T08:05:05;3.15;;;2.92;;
22549;SDS011;11441;57.164;-2.120;2023-07-28T08:07:32;3.17;;;2.88;;
22549;SDS011;11441;57.164;-2.120;2023-07-28T08:09:59;3.30;;;3.10;;
22549;SDS011;11441;57.164;-2.120;2023-07-28T08:12:26;2.63;;;2.47;;
22549;SDS011;11441;57.164;-2.120;2023-07-28T08:14:54;3.08;;;2.88;;
22549;SDS011;11441;57.164;-2.120;2023-07-28T08:17:22;3.30;;;3.08;;
22549;SDS011;11441;57.164;-2.120;2023-07-28T08:19:49;3.42;;;3.13;;
22549;SDS011;11441;57.164;-2.120;2023-07-28T08:22:16;2.78;;;2.33;;
22549;SDS011;11441;57.164;-2.120;2023-07-28T08:24:43;2.63;;;1.95;;
22549;SDS011;11441;57.164;-2.120;2023-07-28T08:27:10;2.25;;;1.70;;
22549;SDS011;11441;57.164;-2.120;2023-07-28T08:29:37;2.20;;;2.00;;
22549;SDS011;11441;57.164;-2.120;2023-07-28T08:32:04;4.70;;;2.22;;
22549;SDS011;11441;57.164;-2.120;2023-07-28T08:34:31;2.15;;;1.95;;
22549;SDS011;11441;57.164;-2.120;2023-07-28T08:36:58;2.13;;;1.90;;
22549;SDS011;11441;57.164;-2.120;2023-07-28T08:39:25;2.20;;;2.10;;
22549;SDS011;11441;57.164;-2.120;2023-07-28T08:41:59;1.63;;;1.52;;
22549;SDS011;11441;57.164;-2.120;2023-07-28T08:44:30;2.10;;;1.50;;
22549;SDS011;11441;57.164;-2.120;2023-07-28T08:47:02;2.58;;;0.93;;
22549;SDS011;11441;57.164;-2.120;2023-07-28T08:49:31;1.33;;;1.30;;
22549;SDS011;11441;57.164;-2.120;2023-07-28T08:51:59;4.70;;;4.22;;
22549;SDS011;11441;57.164;-2.120;2023-07-28T08:54:27;3.25;;;2.85;;
22549;SDS011;11441;57.164;-2.120;2023-07-28T08:56:54;5.70;;;5.10;;
22549;SDS011;11441;57.164;-2.120;2023-07-28T08:59:21;4.78;;;4.32;;
22549;SDS011;11441;57.164;-2.120;2023-07-28T09:02:08;4.55;;;4.15;;
22549;SDS011;11441;57.164;-2.120;2023-07-28T09:04:36;4.38;;;3.70;;
22549;SDS011;11441;57.164;-2.120;2023-07-28T09:07:04;3.90;;;2.60;;
22549;SDS011;11441;57.164;-2.120;2023-07-28T09:09:32;5.35;;;4.45;;
22549;SDS011;11441;57.164;-2.120;2023-07-28T09:12:00;5.07;;;4.38;;
22549;SDS011;11441;57.164;-2.120;2023-07-28T09:14:30;3.17;;;2.88;;
22549;SDS011;11441;57.164;-2.120;2023-07-28T09:17:10;3.60;;;3.30;;
22549;SDS011;11441;57.164;-2.120;2023-07-28T09:19:53;5.13;;;2.75;;
22549;SDS011;11441;57.164;-2.120;2023-07-28T09:22:22;4.63;;;2.53;;
22549;SDS011;11441;57.164;-2.120;2023-07-28T09:24:50;3.97;;;3.17;;
22549;SDS011;11441;57.164;-2.120;2023-07-28T09:27:22;3.33;;;2.55;;
22549;SDS011;11441;57.164;-2.120;2023-07-28T09:29:51;2.15;;;1.88;;
22549;SDS011;11441;57.164;-2.120;2023-07-28T09:32:28;2.80;;;1.70;;
22549;SDS011;11441;57.164;-2.120;2023-07-28T09:35:09;2.67;;;1.60;;
22549;SDS011;11441;57.164;-2.120;2023-07-28T09:37:38;1.27;;;1.27;;
22549;SDS011;11441;57.164;-2.120;2023-07-28T09:40:25;3.67;;;1.30;;
22549;SDS011;11441;57.164;-2.120;2023-07-28T09:42:53;1.40;;;1.20;;
22549;SDS011;11441;57.164;-2.120;2023-07-28T09:45:22;1.10;;;1.08;;
22549;SDS011;11441;57.164;-2.120;2023-07-28T09:48:05;1.60;;;1.30;;
22549;SDS011;11441;57.164;-2.120;2023-07-28T09:50:53;2.20;;;1.00;;
22549;SDS011;11441;57.164;-2.120;2023-07-28T09:53:20;1.98;;;1.30;;
22549;SDS011;11441;57.164;-2.120;2023-07-28T09:55:49;3.45;;;1.77;;
22549;SDS011;11441;57.164;-2.120;2023-07-28T09:58:17;1.52;;;1.30;;
22549;SDS011;11441;57.164;-2.120;2023-07-28T10:01:05;1.45;;;1.35;;
22549;SDS011;11441;57.164;-2.120;2023-07-28T10:03:34;2.45;;;0.98;;
22549;SDS011;11441;57.164;-2.120;2023-07-28T10:06:01;1.23;;;0.98;;
22549;SDS011;11441;57.164;-2.120;2023-07-28T10:08:29;0.65;;;0.65;;
22549;SDS011;11441;57.164;-2.120;2023-07-28T10:10:56;2.15;;;0.60;;
22549;SDS011;11441;57.164;-2.120;2023-07-28T10:13:23;1.65;;;0.43;;
22549;SDS011;11441;57.164;-2.120;2023-07-28T10:15:50;1.10;;;0.55;;
22549;SDS011;11441;57.164;-2.120;2023-07-28T10:18:21;1.17;;;0.50;;
22549;SDS011;11441;57.164;-2.120;2023-07-28T10:20:49;0.93;;;0.85;;
22549;SDS011;11441;57.164;-2.120;2023-07-28T10:23:17;0.75;;;0.50;;
22549;SDS011;11441;57.164;-2.120;2023-07-28T10:25:55;1.45;;;0.68;;
22549;SDS011;11441;57.164;-2.120;2023-07-28T10:28:27;0.40;;;0.40;;
22549;SDS011;11441;57.164;-2.120;2023-07-28T10:30:59;2.38;;;1.00;;
22549;SDS011;11441;57.164;-2.120;2023-07-28T10:33:44;0.47;;;0.40;;
22549;SDS011;11441;57.164;-2.120;2023-07-28T10:36:13;0.65;;;0.40;;
22549;SDS011;11441;57.164;-2.120;2023-07-28T10:39:11;1.00;;;0.45;;
22549;SDS011;11441;57.164;-2.120;2023-07-28T10:42:05;0.43;;;0.43;;
22549;SDS011;11441;57.164;-2.120;2023-07-28T10:44:36;0.93;;;0.40;;
22549;SDS011;11441;57.164;-2.120;2023-07-28T10:47:07;1.45;;;0.47;;
22549;SDS011;11441;57.164;-2.120;2023-07-28T10:49:35;2.33;;;0.95;;
22549;SDS011;11441;57.164;-2.120;2023-07-28T10:52:01;1.20;;;0.60;;
22549;SDS011;11441;57.164;-2.120;2023-07-28T10:54:30;0.85;;;0.47;;
22549;SDS011;11441;57.164;-2.120;2023-07-28T10:57:01;1.50;;;0.63;;
22549;SDS011;11441;57.164;-2.120;2023-07-28T10:59:29;2.38;;;0.57;;
22549;SDS011;11441;57.164;-2.120;2023-07-28T11:01:56;1.55;;;0.73;;
22549;SDS011;11441;57.164;-2.120;2023-07-28T11:04:23;0.60;;;0.60;;
22549;SDS011;11441;57.164;-2.120;2023-07-28T11:06:50;0.50;;;0.50;;
22549;SDS011;11441;57.164;-2.120;2023-07-28T11:09:19;0.90;;;0.43;;
22549;SDS011;11441;57.164;-2.120;2023-07-28T11:11:49;0.50;;;0.50;;
22549;SDS011;11441;57.164;-2.120;2023-07-28T11:14:17;0.38;;;0.38;;
22549;SDS011;11441;57.164;-2.120;2023-07-28T11:16:45;2.65;;;0.50;;
22549;SDS011;11441;57.164;-2.120;2023-07-28T11:19:14;0.40;;;0.40;;
22549;SDS011;11441;57.164;-2.120;2023-07-28T11:21:42;2.10;;;0.50;;
22549;SDS011;11441;57.164;-2.120;2023-07-28T11:24:10;1.52;;;0.57;;
22549;SDS011;11441;57.164;-2.120;2023-07-28T11:26:38;0.57;;;0.50;;
22549;SDS011;11441;57.164;-2.120;2023-07-28T11:29:06;1.42;;;0.50;;
22549;SDS011;11441;57.164;-2.120;2023-07-28T11:31:33;1.60;;;0.40;;
22549;SDS011;11441;57.164;-2.120;2023-07-28T11:34:01;0.50;;;0.50;;
22549;SDS011;11441;57.164;-2.120;2023-07-28T11:36:29;1.60;;;0.32;;
22549;SDS011;11441;57.164;-2.120;2023-07-28T11:38:58;1.67;;;0.40;;
22549;SDS011;11441;57.164;-2.120;2023-07-28T11:41:26;1.05;;;0.40;;
22549;SDS011;11441;57.164;-2.120;2023-07-28T11:43:54;0.35;;;0.35;;
22549;SDS011;11441;57.164;-2.120;2023-07-28T11:46:40;0.80;;;0.40;;
22549;SDS011;11441;57.164;-2.120;2023-07-28T11:49:15;0.30;;;0.30;;
22549;SDS011;11441;57.164;-2.120;2023-07-28T11:51:47;0.40;;;0.40;;
22549;SDS011;11441;57.164;-2.120;2023-07-28T11:54:16;0.63;;;0.40;;
22549;SDS011;11441;57.164;-2.120;2023-07-28T11:56:46;1.48;;;0.40;;
22549;SDS011;11441;57.164;-2.120;2023-07-28T11:59:14;0.85;;;0.60;;
22549;SDS011;11441;57.164;-2.120;2023-07-28T12:01:55;0.40;;;0.40;;
22549;SDS011;11441;57.164;-2.120;2023-07-28T12:04:30;0.75;;;0.40;;
22549;SDS011;11441;57.164;-2.120;2023-07-28T12:09:46;0.50;;;0.22;;
22549;SDS011;11441;57.164;-2.120;2023-07-28T12:12:26;0.77;;;0.50;;
22549;SDS011;11441;57.164;-2.120;2023-07-28T12:14:55;0.70;;;0.70;;
22549;SDS011;11441;57.164;-2.120;2023-07-28T12:17:28;0.70;;;0.70;;
22549;SDS011;11441;57.164;-2.120;2023-07-28T12:20:15;0.50;;;0.45;;
22549;SDS011;11441;57.164;-2.120;2023-07-28T12:22:43;0.45;;;0.45;;
22549;SDS011;11441;57.164;-2.120;2023-07-28T12:25:11;5.20;;;0.50;;
22549;SDS011;11441;57.164;-2.120;2023-07-28T12:27:38;0.93;;;0.70;;
22549;SDS011;11441;57.164;-2.120;2023-07-28T12:30:05;0.75;;;0.75;;
22549;SDS011;11441;57.164;-2.120;2023-07-28T12:32:42;0.80;;;0.80;;
22549;SDS011;11441;57.164;-2.120;2023-07-28T12:35:28;0.98;;;0.80;;
22549;SDS011;11441;57.164;-2.120;2023-07-28T12:38:04;1.30;;;0.85;;
22549;SDS011;11441;57.164;-2.120;2023-07-28T12:40:34;0.90;;;0.90;;
22549;SDS011;11441;57.164;-2.120;2023-07-28T12:43:04;0.95;;;0.75;;
22549;SDS011;11441;57.164;-2.120;2023-07-28T12:45:32;1.00;;;0.93;;
22549;SDS011;11441;57.164;-2.120;2023-07-28T12:48:02;2.97;;;0.70;;
22549;SDS011;11441;57.164;-2.120;2023-07-28T12:50:30;3.13;;;0.80;;
22549;SDS011;11441;57.164;-2.120;2023-07-28T12:53:07;5.95;;;1.00;;
22549;SDS011;11441;57.164;-2.120;2023-07-28T12:55:52;1.45;;;0.90;;
22549;SDS011;11441;57.164;-2.120;2023-07-28T12:58:22;1.25;;;1.05;;
22549;SDS011;11441;57.164;-2.120;2023-07-28T13:00:52;1.30;;;1.08;;
22549;SDS011;11441;57.164;-2.120;2023-07-28T13:03:22;5.43;;;1.15;;
22549;SDS011;11441;57.164;-2.120;2023-07-28T13:05:49;4.57;;;1.40;;
22549;SDS011;11441;57.164;-2.120;2023-07-28T13:08:16;0.90;;;0.88;;
22549;SDS011;11441;57.164;-2.120;2023-07-28T13:10:43;1.10;;;1.00;;
22549;SDS011;11441;57.164;-2.120;2023-07-28T13:13:12;1.38;;;1.27;;
22549;SDS011;11441;57.164;-2.120;2023-07-28T13:15:40;1.23;;;1.13;;
22549;SDS011;11441;57.164;-2.120;2023-07-28T13:18:26;0.90;;;0.88;;
22549;SDS011;11441;57.164;-2.120;2023-07-28T13:20:52;1.55;;;1.23;;
22549;SDS011;11441;57.164;-2.120;2023-07-28T13:23:19;1.83;;;1.45;;
22549;SDS011;11441;57.164;-2.120;2023-07-28T13:28:33;3.80;;;1.58;;
22549;SDS011;11441;57.164;-2.120;2023-07-28T13:31:01;1.58;;;0.88;;
22549;SDS011;11441;57.164;-2.120;2023-07-28T13:33:48;1.20;;;1.15;;
22549;SDS011;11441;57.164;-2.120;2023-07-28T13:36:15;1.30;;;1.10;;
22549;SDS011;11441;57.164;-2.120;2023-07-28T13:38:42;2.00;;;0.90;;
22549;SDS011;11441;57.164;-2.120;2023-07-28T13:41:08;1.13;;;1.13;;
22549;SDS011;11441;57.164;-2.120;2023-07-28T13:43:54;4.22;;;1.52;;
22549;SDS011;11441;57.164;-2.120;2023-07-28T13:46:28;3.03;;;1.45;;
22549;SDS011;11441;57.164;-2.120;2023-07-28T13:48:54;1.90;;;1.50;;
22549;SDS011;11441;57.164;-2.120;2023-07-28T13:51:32;2.00;;;1.50;;
22549;SDS011;11441;57.164;-2.120;2023-07-28T13:54:19;1.67;;;1.13;;
22549;SDS011;11441;57.164;-2.120;2023-07-28T13:56:49;2.40;;;1.27;;
22549;SDS011;11441;57.164;-2.120;2023-07-28T13:59:53;2.45;;;1.15;;
22549;SDS011;11441;57.164;-2.120;2023-07-28T14:02:20;1.02;;;0.93;;
22549;SDS011;11441;57.164;-2.120;2023-07-28T14:04:47;1.45;;;1.35;;
22549;SDS011;11441;57.164;-2.120;2023-07-28T14:07:14;1.40;;;1.02;;
22549;SDS011;11441;57.164;-2.120;2023-07-28T14:09:41;3.35;;;1.63;;
22549;SDS011;11441;57.164;-2.120;2023-07-28T14:12:08;1.65;;;1.55;;
22549;SDS011;11441;57.164;-2.120;2023-07-28T14:14:35;2.15;;;1.02;;
22549;SDS011;11441;57.164;-2.120;2023-07-28T14:17:02;1.73;;;1.00;;
22549;SDS011;11441;57.164;-2.120;2023-07-28T14:19:29;3.60;;;1.27;;
22549;SDS011;11441;57.164;-2.120;2023-07-28T14:21:56;2.03;;;1.55;;
22549;SDS011;11441;57.164;-2.120;2023-07-28T14:24:40;1.00;;;0.93;;
22549;SDS011;11441;57.164;-2.120;2023-07-28T14:27:07;1.02;;;0.90;;
22549;SDS011;11441;57.164;-2.120;2023-07-28T14:29:33;1.15;;;0.90;;
22549;SDS011;11441;57.164;-2.120;2023-07-28T14:32:00;1.48;;;1.38;;
22549;SDS011;11441;57.164;-2.120;2023-07-28T14:34:46;1.98;;;1.30;;
22549;SDS011;11441;57.164;-2.120;2023-07-28T14:37:12;1.30;;;1.20;;
22549;SDS011;11441;57.164;-2.120;2023-07-28T14:39:39;5.07;;;1.30;;
22549;SDS011;11441;57.164;-2.120;2023-07-28T14:42:06;9.20;;;1.83;;
22549;SDS011;11441;57.164;-2.120;2023-07-28T14:44:33;3.40;;;1.10;;
22549;SDS011;11441;57.164;-2.120;2023-07-28T14:47:00;1.23;;;1.13;;
22549;SDS011;11441;57.164;-2.120;2023-07-28T14:49:27;1.55;;;1.05;;
22549;SDS011;11441;57.164;-2.120;2023-07-28T14:51:54;2.40;;;1.40;;
22549;SDS011;11441;57.164;-2.120;2023-07-28T14:54:21;3.63;;;1.20;;
22549;SDS011;11441;57.164;-2.120;2023-07-28T14:56:48;0.70;;;0.70;;
22549;SDS011;11441;57.164;-2.120;2023-07-28T14:59:15;0.90;;;0.60;;
22549;SDS011;11441;57.164;-2.120;2023-07-28T15:01:43;0.80;;;0.80;;
22549;SDS011;11441;57.164;-2.120;2023-07-28T15:04:10;2.10;;;0.65;;
22549;SDS011;11441;57.164;-2.120;2023-07-28T15:06:40;1.45;;;0.70;;
22549;SDS011;11441;57.164;-2.120;2023-07-28T15:11:56;0.85;;;0.85;;
22549;SDS011;11441;57.164;-2.120;2023-07-28T15:14:23;0.80;;;0.80;;